EGTE/EXT METAR and TAF weather

Enter ICAO airport designator
Station Type Date Time Source
EGTE METAR 2019/06/24 23:20 UTC NOAA

EGTE 242320Z 31005KT 9999 -RA NSC 16/14 Q1018


Station Type Date Time Source
EGTE Decoded METAR 2019/06/24 23:20 UTC NOAA

Exeter Airport, United Kingdom (EGTE) 50-44N 003-25W
Jun 24, 2019 - 07:20 PM EDT / 2019.06.24 2320 UTC
Wind: from the NW (310 degrees) at 6 MPH (5 KT):0
Visibility: greater than 7 mile(s):0
Weather: light rain
Temperature: 60 F (16 C)
Dew Point: 57 F (14 C)
Relative Humidity: 87%
Pressure (altimeter): 30.06 in. Hg (1018 hPa)
ob: EGTE 242320Z 31005KT 9999 -RA NSC 16/14 Q1018
cycle: 23

Station Type Date Time Source
EGTE TAF 2012/04/19 12:15 UTC NOAA

TAF TAF EGTE 191401Z 1912/1924 31016KT 9999 SCT030 SCT035 PROB40
TEMPO 1915/1918 7000 SHRA BKN014

Example: see airport list